Time;durP1;ratioP1;P1;durP2;ratioP2;P2;SDS_P1;SDS_P2;PMS_P1;PMS_P2;Temp;Humidity;BMP_temperature;BMP_pressure;BME280_temperature;BME280_humidity;BME280_pressure;Samples;Min_cycle;Max_cycle;Signal;HPM_P1;HPM_P2
2023/06/30 00:02:32;;;;;;;;;;;;;;;18.71;75.30;98589.38;67605;1281;1016675;-69
2023/06/30 00:05:34;;;;;;;;;;;;;;;18.77;75.18;98587.77;67591;1281;1019466;-71
2023/06/30 00:08:37;;;;;;;;;;;;;;;18.72;75.09;98583.08;67607;1281;1016491;-69
2023/06/30 00:11:39;;;;;;;;;;;;;;;18.62;74.56;98583.14;67593;1281;1016531;-70
2023/06/30 00:14:42;;;;;;;;;;;;;;;18.49;75.36;98581.77;67571;1281;1016281;-70
2023/06/30 00:17:45;;;;;;;;;;;;;;;18.46;75.06;98582.08;67624;1281;1016460;-70
2023/06/30 00:20:47;;;;;;;;;;;;;;;18.32;75.11;98579.05;67627;1281;1016442;-70
2023/06/30 00:23:49;;;;;;;;;;;;;;;18.17;76.03;98580.04;67636;1281;1016343;-69
2023/06/30 00:26:52;;;;;;;;;;;;;;;18.12;76.15;98579.45;67576;1281;1016316;-71
2023/06/30 00:29:54;;;;;;;;;;;;;;;18.07;76.29;98579.63;67588;1281;1016459;-70
2023/06/30 00:32:57;;;;;;;;;;;;;;;18.02;76.73;98576.35;67582;1281;1018998;-70
2023/06/30 00:35:59;;;;;;;;;;;;;;;17.91;77.27;98573.17;67627;1281;1016378;-67
2023/06/30 00:39:02;;;;;;;;;;;;;;;17.82;77.47;98567.77;67599;1281;1016354;-70
2023/06/30 00:42:05;;;;;;;;;;;;;;;17.77;77.55;98564.92;67633;1281;1016466;-68
2023/06/30 00:45:07;;;;;;;;;;;;;;;17.75;77.65;98564.44;67628;1281;1016459;-70
2023/06/30 00:48:10;;;;;;;;;;;;;;;17.65;78.06;98568.17;67618;1281;1019391;-70
2023/06/30 00:51:12;;;;;;;;;;;;;;;17.53;78.86;98566.15;67609;1281;1016173;-70
2023/06/30 00:54:15;;;;;;;;;;;;;;;17.46;78.95;98561.44;67590;1281;1018418;-68
2023/06/30 00:57:17;;;;;;;;;;;;;;;17.46;79.07;98556.46;67638;1281;1015947;-70
2023/06/30 01:00:20;;;;;;;;;;;;;;;17.50;78.89;98556.15;67630;1281;1016414;-70
2023/06/30 01:03:24;;;;;;;;;;;;;;;17.64;78.85;98551.39;67636;1281;1016590;-68
2023/06/30 01:06:27;;;;;;;;;;;;;;;17.56;78.55;98550.63;67608;1281;1016073;-69
2023/06/30 01:09:29;;;;;;;;;;;;;;;17.55;77.99;98548.95;67599;1281;1016277;-70
2023/06/30 01:12:32;;;;;;;;;;;;;;;17.54;78.27;98549.63;67637;1281;1016458;-70
2023/06/30 01:15:34;;;;;;;;;;;;;;;17.58;78.02;98548.73;67561;1281;1016856;-71
2023/06/30 01:18:37;;;;;;;;;;;;;;;17.49;78.60;98549.70;67576;1281;1016273;-70
2023/06/30 01:21:39;;;;;;;;;;;;;;;17.50;78.11;98548.05;67612;1281;1016495;-68
2023/06/30 01:24:43;;;;;;;;;;;;;;;17.38;78.27;98544.70;67637;1281;1016207;-69
2023/06/30 01:27:45;;;;;;;;;;;;;;;17.28;78.07;98538.01;67623;1281;1016436;-69
2023/06/30 01:30:50;;;;;;;;;;;;;;;17.28;77.98;98540.35;67637;1281;1016450;-69
2023/06/30 01:33:53;;;;;;;;;;;;;;;17.21;78.12;98537.30;67595;1281;1016475;-67
2023/06/30 01:36:56;;;;;;;;;;;;;;;17.09;78.48;98533.75;67615;1281;1016313;-69
2023/06/30 01:39:58;;;;;;;;;;;;;;;17.11;79.07;98535.92;67615;1281;1016469;-62
2023/06/30 01:43:00;;;;;;;;;;;;;;;17.07;79.36;98536.24;67588;1281;1016636;-63
2023/06/30 01:46:03;;;;;;;;;;;;;;;17.08;78.94;98530.89;67560;1281;1015827;-62
2023/06/30 01:49:05;;;;;;;;;;;;;;;17.10;78.29;98535.26;67630;1281;1015933;-62
2023/06/30 01:52:08;;;;;;;;;;;;;;;17.11;78.20;98531.15;67593;1281;1016389;-64
2023/06/30 01:55:10;;;;;;;;;;;;;;;17.07;78.27;98533.76;67574;1281;1016757;-68
2023/06/30 01:58:13;;;;;;;;;;;;;;;17.06;78.34;98536.55;67577;1281;1016420;-70
2023/06/30 02:01:16;;;;;;;;;;;;;;;17.05;77.88;98534.52;67603;1281;1017415;-67
2023/06/30 02:04:19;;;;;;;;;;;;;;;16.98;77.71;98533.73;67577;1281;1015760;-68
2023/06/30 02:07:23;;;;;;;;;;;;;;;16.98;77.99;98530.20;67608;1281;1016896;-69
2023/06/30 02:10:25;;;;;;;;;;;;;;;17.02;78.26;98529.73;67632;1281;1016360;-69
2023/06/30 02:13:28;;;;;;;;;;;;;;;17.03;78.04;98529.98;67614;1281;1016419;-68
2023/06/30 02:16:30;;;;;;;;;;;;;;;17.03;77.98;98528.38;67638;1281;1018160;-69
2023/06/30 02:19:33;;;;;;;;;;;;;;;16.96;78.49;98527.74;67589;1281;1016495;-68
2023/06/30 02:22:35;;;;;;;;;;;;;;;16.90;78.43;98528.13;67603;1281;1016097;-68
2023/06/30 02:25:38;;;;;;;;;;;;;;;16.83;78.50;98526.42;67626;1281;1017126;-70
2023/06/30 02:28:40;;;;;;;;;;;;;;;16.82;78.21;98521.96;67630;1281;1016093;-69
2023/06/30 02:31:42;;;;;;;;;;;;;;;16.75;78.41;98519.04;67620;1281;1016231;-66
2023/06/30 02:34:45;;;;;;;;;;;;;;;16.80;78.14;98519.13;67598;1281;1016202;-70
2023/06/30 02:37:47;;;;;;;;;;;;;;;16.84;78.00;98517.84;67613;1281;1016166;-69
2023/06/30 02:40:50;;;;;;;;;;;;;;;16.89;77.65;98512.10;67620;1281;1016401;-69
2023/06/30 02:43:52;;;;;;;;;;;;;;;17.00;77.18;98511.67;67607;1281;1016465;-68
2023/06/30 02:46:54;;;;;;;;;;;;;;;16.96;77.93;98511.80;67625;1281;1016426;-69
2023/06/30 02:49:57;;;;;;;;;;;;;;;16.97;78.33;98514.41;67609;1281;1016671;-66
2023/06/30 02:52:59;;;;;;;;;;;;;;;17.05;78.15;98513.82;67569;1281;1016719;-69
2023/06/30 02:56:02;;;;;;;;;;;;;;;17.08;77.84;98513.20;65527;1281;5390390;-68
2023/06/30 02:59:05;;;;;;;;;;;;;;;17.01;78.16;98511.53;67598;1281;1016376;-69
2023/06/30 03:02:07;;;;;;;;;;;;;;;16.99;78.08;98511.19;67602;1281;1016369;-68
2023/06/30 03:05:10;;;;;;;;;;;;;;;16.95;78.28;98514.88;67590;1281;1016085;-68
2023/06/30 03:08:12;;;;;;;;;;;;;;;17.02;78.15;98514.11;67584;1281;1016194;-69
2023/06/30 03:11:14;;;;;;;;;;;;;;;17.03;78.48;98516.03;67619;1281;1016411;-69
2023/06/30 03:14:17;;;;;;;;;;;;;;;17.06;78.98;98514.09;67632;1281;1016269;-69
2023/06/30 03:17:20;;;;;;;;;;;;;;;17.19;79.29;98515.54;67615;1281;1016319;-70
2023/06/30 03:20:22;;;;;;;;;;;;;;;17.29;79.21;98514.63;67609;1281;1017380;-68
2023/06/30 03:23:25;;;;;;;;;;;;;;;17.43;78.50;98515.23;67589;1281;1016847;-69
2023/06/30 03:26:28;;;;;;;;;;;;;;;17.50;78.54;98514.38;67600;1281;1016129;-67
2023/06/30 03:29:31;;;;;;;;;;;;;;;17.54;78.67;98511.98;67628;1281;1016484;-68
2023/06/30 03:32:33;;;;;;;;;;;;;;;17.72;77.79;98512.55;67598;1277;1017969;-70
2023/06/30 03:35:36;;;;;;;;;;;;;;;17.77;77.88;98508.30;67598;1281;1016500;-68
2023/06/30 03:38:38;;;;;;;;;;;;;;;17.98;77.41;98506.48;67630;1281;1016357;-69
2023/06/30 03:41:41;;;;;;;;;;;;;;;18.11;77.24;98505.66;67614;1281;1016163;-69
2023/06/30 03:44:43;;;;;;;;;;;;;;;18.20;77.80;98510.23;67607;1281;1015642;-69
2023/06/30 03:47:47;;;;;;;;;;;;;;;18.37;77.86;98506.26;67596;1281;1016343;-69
2023/06/30 03:50:50;;;;;;;;;;;;;;;18.81;77.20;98501.54;67594;1281;1016690;-69
2023/06/30 03:53:52;;;;;;;;;;;;;;;19.20;76.71;98497.84;67625;1281;1016334;-70
2023/06/30 03:56:56;;;;;;;;;;;;;;;19.50;76.09;98496.21;67612;1274;1015872;-69
2023/06/30 03:59:59;;;;;;;;;;;;;;;19.72;75.66;98496.98;67605;1281;1016849;-70
2023/06/30 04:03:02;;;;;;;;;;;;;;;20.00;74.82;98491.59;67618;1281;1019552;-70
2023/06/30 04:06:04;;;;;;;;;;;;;;;20.27;74.43;98490.17;67563;1281;1016504;-69
2023/06/30 04:09:07;;;;;;;;;;;;;;;20.45;74.44;98489.87;67571;1281;1018777;-70
2023/06/30 04:12:09;;;;;;;;;;;;;;;20.72;73.98;98487.17;67606;1281;1016481;-70
2023/06/30 04:15:12;;;;;;;;;;;;;;;20.88;74.12;98488.63;67587;1281;1016504;-70
2023/06/30 04:18:14;;;;;;;;;;;;;;;21.12;73.77;98486.34;67595;1281;1015816;-71
2023/06/30 04:21:17;;;;;;;;;;;;;;;21.27;73.66;98491.55;67593;1281;1016458;-70
2023/06/30 04:24:20;;;;;;;;;;;;;;;21.62;72.53;98487.23;67654;1281;1016320;-68
2023/06/30 04:27:23;;;;;;;;;;;;;;;21.81;73.29;98489.27;67640;1281;1015944;-70
2023/06/30 04:30:25;;;;;;;;;;;;;;;22.12;72.76;98485.92;67616;1281;1016484;-70
2023/06/30 04:33:28;;;;;;;;;;;;;;;22.34;71.84;98490.04;67608;1281;1016344;-70
2023/06/30 04:36:30;;;;;;;;;;;;;;;22.41;71.78;98488.44;67626;1281;1016453;-70
2023/06/30 04:39:33;;;;;;;;;;;;;;;22.45;73.01;98489.44;67612;1281;1015673;-70
2023/06/30 04:42:35;;;;;;;;;;;;;;;22.74;72.23;98486.11;67606;1281;1016450;-70
2023/06/30 04:45:38;;;;;;;;;;;;;;;22.88;72.42;98484.96;67619;1281;1016314;-70
2023/06/30 04:48:40;;;;;;;;;;;;;;;23.20;72.52;98483.42;67640;1281;1016474;-70
2023/06/30 04:51:43;;;;;;;;;;;;;;;23.63;71.68;98482.73;67598;1281;1016469;-69
2023/06/30 04:54:45;;;;;;;;;;;;;;;24.03;71.08;98482.01;67555;1281;1016465;-70
2023/06/30 04:57:47;;;;;;;;;;;;;;;24.40;69.69;98483.19;67582;1281;1016629;-70
2023/06/30 05:00:50;;;;;;;;;;;;;;;24.79;68.33;98483.37;67604;1281;1016405;-69
2023/06/30 05:03:52;;;;;;;;;;;;;;;25.00;67.37;98481.22;67634;1281;1020152;-68
2023/06/30 05:06:55;;;;;;;;;;;;;;;25.33;66.85;98479.38;67607;1281;1016506;-68
2023/06/30 05:09:58;;;;;;;;;;;;;;;25.79;63.69;98476.42;67613;1281;1016387;-70
2023/06/30 05:13:00;;;;;;;;;;;;;;;26.12;62.99;98477.67;67616;1281;1016421;-70
2023/06/30 05:16:03;;;;;;;;;;;;;;;26.20;61.81;98476.04;67635;1281;1016310;-69
2023/06/30 05:19:05;;;;;;;;;;;;;;;26.14;62.15;98472.31;67599;1281;1016207;-71
2023/06/30 05:22:08;;;;;;;;;;;;;;;26.49;62.10;98469.35;67601;1281;1015974;-71
2023/06/30 05:25:10;;;;;;;;;;;;;;;26.69;60.46;98464.95;67631;1281;1016276;-70
2023/06/30 05:28:12;;;;;;;;;;;;;;;26.69;58.21;98461.93;67658;1281;1016022;-68
2023/06/30 05:31:15;;;;;;;;;;;;;;;26.91;59.08;98458.89;67638;1281;1016624;-70
2023/06/30 05:34:17;;;;;;;;;;;;;;;27.18;59.69;98462.61;67597;1281;1016518;-70
2023/06/30 05:37:20;;;;;;;;;;;;;;;27.55;58.42;98464.58;67596;1281;1016460;-70
2023/06/30 05:40:22;;;;;;;;;;;;;;;27.92;57.61;98462.36;67632;1281;1016488;-69
2023/06/30 05:43:25;;;;;;;;;;;;;;;27.90;54.17;98463.78;67613;1281;1018713;-70
2023/06/30 05:46:27;;;;;;;;;;;;;;;27.89;56.19;98466.98;67593;1281;1016372;-69
2023/06/30 05:49:29;;;;;;;;;;;;;;;27.92;54.36;98466.50;67596;1281;1016499;-71
2023/06/30 05:52:32;;;;;;;;;;;;;;;28.23;54.94;98467.40;67550;1281;1016521;-69
2023/06/30 05:55:34;;;;;;;;;;;;;;;28.35;53.18;98465.80;67614;1281;1016371;-70
2023/06/30 05:58:39;;;;;;;;;;;;;;;28.47;52.22;98461.41;67661;1281;1016588;-69
2023/06/30 06:01:41;;;;;;;;;;;;;;;28.60;50.31;98463.15;67557;1281;1016449;-70
2023/06/30 06:04:44;;;;;;;;;;;;;;;28.42;51.25;98460.23;67640;1281;1016236;-65
2023/06/30 06:07:46;;;;;;;;;;;;;;;28.53;50.94;98458.95;67622;1281;1019851;-65
2023/06/30 06:10:49;;;;;;;;;;;;;;;28.46;49.25;98458.54;67597;1281;1016426;-64
2023/06/30 06:13:52;;;;;;;;;;;;;;;28.40;49.82;98456.00;67611;1281;1015960;-70
2023/06/30 06:16:55;;;;;;;;;;;;;;;28.56;48.60;98456.19;67639;1281;1016507;-67
2023/06/30 06:19:57;;;;;;;;;;;;;;;28.59;47.66;98457.55;67632;1281;1018836;-71
2023/06/30 06:23:00;;;;;;;;;;;;;;;28.32;47.81;98459.09;67514;1281;1016073;-70
2023/06/30 06:26:02;;;;;;;;;;;;;;;28.30;48.17;98459.61;67583;1281;1016392;-69
2023/06/30 06:29:05;;;;;;;;;;;;;;;28.38;48.48;98461.22;67657;1281;1016517;-70
2023/06/30 06:32:07;;;;;;;;;;;;;;;28.64;49.41;98460.66;67630;1281;1016428;-70
2023/06/30 06:35:10;;;;;;;;;;;;;;;29.08;48.87;98460.17;67615;1281;1016469;-69
2023/06/30 06:38:12;;;;;;;;;;;;;;;29.49;47.38;98462.05;67579;1281;1016593;-66
2023/06/30 06:41:15;;;;;;;;;;;;;;;29.73;47.48;98461.95;67582;1281;1015888;-71
2023/06/30 06:44:17;;;;;;;;;;;;;;;30.06;46.60;98460.43;67658;1281;1016481;-72
2023/06/30 06:47:20;;;;;;;;;;;;;;;30.07;44.39;98459.91;67608;1281;1016462;-69
2023/06/30 06:50:22;;;;;;;;;;;;;;;29.82;43.58;98461.75;67592;1281;1016196;-69
2023/06/30 06:53:25;;;;;;;;;;;;;;;29.79;44.94;98465.07;67645;1281;1018988;-69
2023/06/30 06:56:28;;;;;;;;;;;;;;;30.14;45.70;98463.51;67600;1281;1016831;-71
2023/06/30 06:59:30;;;;;;;;;;;;;;;30.28;44.18;98466.19;67616;1281;1017032;-66
2023/06/30 07:02:33;;;;;;;;;;;;;;;30.43;44.81;98462.40;67566;1281;1016424;-67
2023/06/30 07:05:36;;;;;;;;;;;;;;;30.57;43.60;98460.05;67650;1281;1016513;-67
2023/06/30 07:08:39;;;;;;;;;;;;;;;30.50;43.45;98460.56;67602;1281;1016186;-68
2023/06/30 07:11:41;;;;;;;;;;;;;;;30.38;43.35;98461.42;67626;1281;1016581;-69
2023/06/30 07:14:44;;;;;;;;;;;;;;;30.14;41.72;98459.30;67613;1281;1016747;-68
2023/06/30 07:17:46;;;;;;;;;;;;;;;30.13;43.25;98452.95;67611;1281;1016410;-68
2023/06/30 07:20:49;;;;;;;;;;;;;;;30.36;42.19;98451.23;67578;1281;1016433;-66
2023/06/30 07:23:52;;;;;;;;;;;;;;;30.58;41.20;98450.39;67624;1281;1016292;-67
2023/06/30 07:26:55;;;;;;;;;;;;;;;30.80;41.17;98447.91;67613;1281;1016453;-68
2023/06/30 07:29:58;;;;;;;;;;;;;;;31.28;41.21;98440.42;67632;1281;1016414;-69
2023/06/30 07:33:00;;;;;;;;;;;;;;;31.77;40.37;98437.88;67588;1281;1018993;-69
2023/06/30 07:36:02;;;;;;;;;;;;;;;32.03;40.84;98437.95;67604;1281;1017600;-69
2023/06/30 07:39:06;;;;;;;;;;;;;;;32.11;39.53;98431.27;67646;1281;1016511;-69
2023/06/30 07:42:10;;;;;;;;;;;;;;;32.16;40.20;98432.92;67611;1281;1016064;-69
2023/06/30 07:45:13;;;;;;;;;;;;;;;32.49;40.31;98423.30;67574;1281;1017919;-66
2023/06/30 07:48:16;;;;;;;;;;;;;;;32.62;39.36;98426.63;67663;1281;1016370;-67
2023/06/30 07:51:19;;;;;;;;;;;;;;;32.74;39.90;98426.48;67556;1281;1016263;-69
2023/06/30 07:54:22;;;;;;;;;;;;;;;32.69;38.16;98425.53;67650;1281;1016549;-68
2023/06/30 07:57:25;;;;;;;;;;;;;;;32.61;39.58;98421.77;67609;1281;1016683;-67
2023/06/30 08:00:29;;;;;;;;;;;;;;;33.11;39.33;98421.92;67603;1281;1016195;-68
2023/06/30 08:03:31;;;;;;;;;;;;;;;33.06;37.15;98417.96;67573;1281;1016744;-68
2023/06/30 08:06:34;;;;;;;;;;;;;;;32.72;38.30;98410.95;67636;1281;1016833;-69
2023/06/30 08:09:37;;;;;;;;;;;;;;;32.68;37.71;98408.96;67628;1281;1016435;-69
2023/06/30 08:12:39;;;;;;;;;;;;;;;32.66;39.38;98406.43;67595;1281;1016472;-64
2023/06/30 08:15:42;;;;;;;;;;;;;;;33.10;38.83;98406.06;67636;1281;1017854;-67
2023/06/30 08:18:44;;;;;;;;;;;;;;;32.96;35.17;98411.63;67630;1281;1019643;-67
2023/06/30 08:21:47;;;;;;;;;;;;;;;32.70;37.26;98406.23;67583;1281;1016188;-66
2023/06/30 08:24:49;;;;;;;;;;;;;;;33.06;37.22;98409.86;67609;1281;1019355;-67
2023/06/30 08:27:52;;;;;;;;;;;;;;;33.17;35.61;98407.17;67619;1281;1016711;-67
2023/06/30 08:30:54;;;;;;;;;;;;;;;33.12;35.21;98412.92;67615;1281;1015968;-67
2023/06/30 08:33:57;;;;;;;;;;;;;;;33.22;35.60;98417.33;67566;1281;1017644;-66
2023/06/30 08:36:59;;;;;;;;;;;;;;;33.37;35.12;98412.58;67592;1281;1017262;-68
2023/06/30 08:40:02;;;;;;;;;;;;;;;33.70;35.93;98414.92;67622;1281;1017393;-69
2023/06/30 08:43:05;;;;;;;;;;;;;;;34.32;35.16;98411.23;67620;1281;1016540;-67
2023/06/30 08:46:08;;;;;;;;;;;;;;;34.71;34.97;98411.05;67580;1281;1018161;-68
2023/06/30 08:49:10;;;;;;;;;;;;;;;35.41;35.28;98403.18;67636;1281;1016577;-66
2023/06/30 08:52:14;;;;;;;;;;;;;;;35.59;34.03;98402.67;67601;1281;1016368;-67
2023/06/30 08:55:17;;;;;;;;;;;;;;;35.01;34.02;98402.23;67634;1281;1016445;-67
2023/06/30 08:58:19;;;;;;;;;;;;;;;34.51;34.48;98398.60;67619;1281;1016443;-65
2023/06/30 09:01:22;;;;;;;;;;;;;;;34.00;34.27;98397.85;67657;1281;1015807;-69
2023/06/30 09:04:24;;;;;;;;;;;;;;;33.97;34.91;98395.33;67609;1281;1016551;-67
2023/06/30 09:07:27;;;;;;;;;;;;;;;33.99;34.25;98391.20;67605;1281;1016115;-69
2023/06/30 09:10:33;;;;;;;;;;;;;;;33.89;34.09;98390.46;67495;1281;1016632;-66
2023/06/30 09:13:36;;;;;;;;;;;;;;;33.91;35.56;98389.39;67572;1281;1016446;-68
2023/06/30 09:16:38;;;;;;;;;;;;;;;34.22;35.34;98386.98;67587;1281;1016539;-68
2023/06/30 09:19:41;;;;;;;;;;;;;;;34.27;34.96;98384.73;67532;1281;1016417;-68
2023/06/30 09:22:43;;;;;;;;;;;;;;;34.44;35.00;98378.68;67513;1281;1016354;-63
2023/06/30 09:25:46;;;;;;;;;;;;;;;34.82;35.55;98382.55;67483;1281;1016401;-63
2023/06/30 09:28:49;;;;;;;;;;;;;;;35.13;34.28;98378.42;67610;1281;1016396;-67
2023/06/30 09:31:52;;;;;;;;;;;;;;;34.82;34.24;98377.94;67617;1281;1016204;-64
2023/06/30 09:34:54;;;;;;;;;;;;;;;34.37;33.84;98384.48;67657;1281;1016484;-68
2023/06/30 09:37:57;;;;;;;;;;;;;;;34.13;34.88;98383.56;67645;1281;1016718;-67
2023/06/30 09:40:59;;;;;;;;;;;;;;;34.56;34.38;98386.01;67622;1281;1016373;-68
2023/06/30 09:44:04;;;;;;;;;;;;;;;34.64;33.09;98387.58;67608;1281;1016398;-68
2023/06/30 09:47:06;;;;;;;;;;;;;;;34.89;33.81;98383.26;67656;1281;1016338;-68
2023/06/30 09:50:09;;;;;;;;;;;;;;;35.25;32.98;98380.61;67657;1281;1016393;-67
2023/06/30 09:53:12;;;;;;;;;;;;;;;35.60;33.75;98382.23;67601;1281;1016435;-68
2023/06/30 09:56:14;;;;;;;;;;;;;;;35.87;33.15;98379.59;67645;1281;1016899;-65
2023/06/30 09:59:17;;;;;;;;;;;;;;;35.69;31.97;98385.86;67639;1281;1016503;-69
2023/06/30 10:02:19;;;;;;;;;;;;;;;35.06;32.88;98384.98;67582;1281;1016825;-69
2023/06/30 10:05:22;;;;;;;;;;;;;;;34.75;32.43;98381.20;67631;1281;1016227;-68
2023/06/30 10:08:24;;;;;;;;;;;;;;;34.13;32.84;98385.80;67666;1281;1016465;-68
2023/06/30 10:11:27;;;;;;;;;;;;;;;33.94;32.73;98381.27;67647;1281;1016219;-69
2023/06/30 10:14:30;;;;;;;;;;;;;;;34.17;33.28;98381.48;67592;1281;1016149;-69
2023/06/30 10:17:32;;;;;;;;;;;;;;;34.23;33.52;98379.41;67675;1281;1016467;-68
2023/06/30 10:20:35;;;;;;;;;;;;;;;34.44;34.05;98376.23;67652;1281;1016332;-68
2023/06/30 10:23:38;;;;;;;;;;;;;;;34.43;33.88;98378.17;67612;1281;1016419;-68
2023/06/30 10:26:40;;;;;;;;;;;;;;;34.24;34.35;98381.71;67633;1281;1016435;-69
2023/06/30 10:29:43;;;;;;;;;;;;;;;34.41;34.89;98374.64;67660;1281;1016066;-69
2023/06/30 10:32:45;;;;;;;;;;;;;;;34.72;35.27;98373.05;67652;1281;1016540;-69
2023/06/30 10:35:48;;;;;;;;;;;;;;;34.97;34.93;98368.48;67617;1281;1016506;-69
2023/06/30 10:38:50;;;;;;;;;;;;;;;35.09;34.89;98366.09;67633;1281;1016387;-69
2023/06/30 10:41:52;;;;;;;;;;;;;;;35.29;34.95;98366.69;67642;1281;1016399;-67
2023/06/30 10:44:55;;;;;;;;;;;;;;;35.19;35.24;98362.82;67650;1281;1016798;-68
2023/06/30 10:47:57;;;;;;;;;;;;;;;35.42;34.56;98366.85;67672;1281;1016332;-69
2023/06/30 10:51:00;;;;;;;;;;;;;;;35.19;32.65;98367.44;67606;1281;1016431;-69
2023/06/30 10:54:02;;;;;;;;;;;;;;;35.03;32.82;98362.19;67636;1281;1016310;-69
2023/06/30 10:57:05;;;;;;;;;;;;;;;34.47;32.28;98357.13;67650;1281;1016159;-68
2023/06/30 11:00:10;;;;;;;;;;;;;;;33.89;32.97;98356.64;67661;1281;1016346;-67
2023/06/30 11:03:12;;;;;;;;;;;;;;;33.56;33.27;98355.84;67606;1281;1016490;-68
2023/06/30 11:06:14;;;;;;;;;;;;;;;33.55;32.97;98351.97;67594;1281;1017554;-68
2023/06/30 11:09:19;;;;;;;;;;;;;;;34.00;32.68;98345.95;67599;1281;1016639;-68
2023/06/30 11:12:23;;;;;;;;;;;;;;;34.36;33.43;98343.45;67616;1281;1019558;-69
2023/06/30 11:15:25;;;;;;;;;;;;;;;34.96;33.89;98336.38;67666;1281;1016181;-68
2023/06/30 11:18:28;;;;;;;;;;;;;;;35.52;33.70;98334.05;67621;1281;1016347;-69
2023/06/30 11:21:30;;;;;;;;;;;;;;;35.86;32.56;98332.01;67627;1281;1016676;-69
2023/06/30 11:24:33;;;;;;;;;;;;;;;35.82;32.15;98330.64;67638;1281;1016743;-69
2023/06/30 11:27:36;;;;;;;;;;;;;;;36.38;33.17;98327.17;67641;1281;1016151;-69
2023/06/30 11:30:39;;;;;;;;;;;;;;;36.71;32.81;98326.42;67627;1281;1016380;-67
2023/06/30 11:33:41;;;;;;;;;;;;;;;36.67;30.97;98328.21;67631;1281;1017288;-68
2023/06/30 11:36:44;;;;;;;;;;;;;;;35.81;32.42;98332.10;67639;1281;1016190;-68
2023/06/30 11:39:46;;;;;;;;;;;;;;;35.76;31.83;98327.56;67636;1281;1016474;-68
2023/06/30 11:42:48;;;;;;;;;;;;;;;36.12;32.05;98320.40;67625;1281;1016048;-69
2023/06/30 11:45:51;;;;;;;;;;;;;;;36.41;31.30;98320.91;67605;1281;1016380;-68
2023/06/30 11:48:53;;;;;;;;;;;;;;;36.21;29.27;98324.33;67622;1281;1016429;-69
2023/06/30 11:51:56;;;;;;;;;;;;;;;34.56;30.22;98326.17;67612;1281;1016446;-69
2023/06/30 11:55:01;;;;;;;;;;;;;;;33.34;32.29;98324.15;67638;1281;1016323;-68
2023/06/30 11:58:08;;;;;;;;;;;;;;;33.01;32.34;98322.60;67625;1281;1016408;-68
2023/06/30 12:01:11;;;;;;;;;;;;;;;32.65;33.79;98315.98;67601;1281;1016377;-69
2023/06/30 12:04:14;;;;;;;;;;;;;;;32.76;34.52;98313.27;67629;1281;1016451;-68
2023/06/30 12:07:16;;;;;;;;;;;;;;;32.43;32.96;98311.36;67643;1281;1016439;-69
2023/06/30 12:10:19;;;;;;;;;;;;;;;32.53;34.40;98306.95;67649;1281;1016406;-69
2023/06/30 12:13:21;;;;;;;;;;;;;;;32.37;33.64;98307.53;67600;1281;1016480;-67
2023/06/30 12:16:24;;;;;;;;;;;;;;;31.84;33.60;98305.77;67661;1281;1016501;-68
2023/06/30 12:19:27;;;;;;;;;;;;;;;31.56;34.25;98303.36;67668;1281;1016706;-66
2023/06/30 12:22:30;;;;;;;;;;;;;;;31.97;34.34;98301.50;67664;1281;1016465;-69
2023/06/30 12:25:33;;;;;;;;;;;;;;;32.53;33.89;98300.76;67644;1281;1016361;-70
2023/06/30 12:28:36;;;;;;;;;;;;;;;33.22;32.70;98298.20;67586;1281;1016536;-69
2023/06/30 12:31:41;;;;;;;;;;;;;;;32.80;32.36;98305.81;67624;1281;1019571;-69
2023/06/30 12:34:46;;;;;;;;;;;;;;;32.29;32.16;98302.08;67587;1281;1017978;-67
2023/06/30 12:37:48;;;;;;;;;;;;;;;32.77;33.06;98298.48;67599;1281;1016425;-69
2023/06/30 12:40:51;;;;;;;;;;;;;;;33.74;32.79;98286.74;67670;1281;1016614;-68
2023/06/30 12:43:55;;;;;;;;;;;;;;;34.14;30.84;98288.90;67619;1281;1016338;-63
2023/06/30 12:46:58;;;;;;;;;;;;;;;33.02;31.61;98291.69;67611;1281;1016423;-64
2023/06/30 12:50:02;;;;;;;;;;;;;;;32.30;33.36;98292.70;67650;1281;1016461;-64
2023/06/30 12:53:07;;;;;;;;;;;;;;;32.08;33.75;98287.86;67645;1281;1016373;-67
2023/06/30 12:56:10;;;;;;;;;;;;;;;32.23;33.27;98291.08;67578;1281;1016375;-68
2023/06/30 12:59:12;;;;;;;;;;;;;;;32.20;33.95;98289.23;67638;1281;1016406;-69
2023/06/30 13:02:15;;;;;;;;;;;;;;;32.40;34.51;98277.99;67678;1281;1018432;-70
2023/06/30 13:05:18;;;;;;;;;;;;;;;32.35;33.79;98281.92;67636;1281;1016420;-69
2023/06/30 13:08:20;;;;;;;;;;;;;;;32.17;35.40;98273.44;67624;1281;1018194;-68
2023/06/30 13:11:24;;;;;;;;;;;;;;;33.03;34.83;98270.74;67643;1281;1016016;-69
2023/06/30 13:14:27;;;;;;;;;;;;;;;33.85;33.83;98256.45;67586;1281;1017122;-69
2023/06/30 13:17:29;;;;;;;;;;;;;;;34.08;32.89;98260.02;67614;1281;1016454;-69
2023/06/30 13:20:34;;;;;;;;;;;;;;;33.93;33.30;98260.45;67622;1281;1016874;-68
2023/06/30 13:23:36;;;;;;;;;;;;;;;33.67;33.64;98250.74;67590;1281;1019093;-69
2023/06/30 13:26:39;;;;;;;;;;;;;;;33.35;33.40;98248.59;67575;1281;1016202;-69
2023/06/30 13:29:42;;;;;;;;;;;;;;;33.31;34.63;98247.18;67610;1281;1016371;-69
2023/06/30 13:32:44;;;;;;;;;;;;;;;33.57;34.69;98237.87;67610;1281;1016004;-69
2023/06/30 13:35:47;;;;;;;;;;;;;;;33.62;33.22;98244.23;67589;1281;1016120;-68
2023/06/30 13:38:49;;;;;;;;;;;;;;;32.97;33.06;98243.09;67617;1281;1016393;-67
2023/06/30 13:41:52;;;;;;;;;;;;;;;32.41;33.34;98235.25;67642;1281;1016360;-69
2023/06/30 13:44:54;;;;;;;;;;;;;;;32.35;34.36;98227.52;67606;1281;1016322;-69
2023/06/30 13:47:58;;;;;;;;;;;;;;;32.57;34.87;98224.56;67639;1281;1016476;-68
2023/06/30 13:51:00;;;;;;;;;;;;;;;32.75;33.63;98220.09;67601;1281;1016466;-70
2023/06/30 13:54:03;;;;;;;;;;;;;;;32.89;33.68;98217.80;67590;1281;1016275;-69
2023/06/30 13:57:06;;;;;;;;;;;;;;;32.58;32.57;98220.66;67672;1281;1016519;-70
2023/06/30 14:00:09;;;;;;;;;;;;;;;32.57;33.56;98217.55;67594;1281;1016503;-66
2023/06/30 14:03:11;;;;;;;;;;;;;;;32.75;33.61;98211.01;67593;1281;1016389;-69
2023/06/30 14:06:13;;;;;;;;;;;;;;;33.06;33.11;98207.67;67656;1281;1016173;-70
2023/06/30 14:09:16;;;;;;;;;;;;;;;33.03;32.33;98206.92;67680;1281;1016371;-70
2023/06/30 14:12:19;;;;;;;;;;;;;;;33.18;32.22;98198.19;67608;1281;1016181;-70
2023/06/30 14:15:22;;;;;;;;;;;;;;;33.48;32.42;98199.57;67610;1281;1016511;-68
2023/06/30 14:18:25;;;;;;;;;;;;;;;33.38;32.39;98198.29;67619;1281;1016599;-69
2023/06/30 14:21:28;;;;;;;;;;;;;;;33.27;32.25;98204.66;67638;1281;1016460;-70
2023/06/30 14:24:31;;;;;;;;;;;;;;;33.28;32.09;98199.13;67589;1281;1016387;-68
2023/06/30 14:27:34;;;;;;;;;;;;;;;33.63;32.47;98196.28;67634;1281;1016229;-70
2023/06/30 14:30:37;;;;;;;;;;;;;;;33.66;31.96;98195.54;67657;1281;1016419;-70
2023/06/30 14:33:39;;;;;;;;;;;;;;;33.22;31.85;98194.80;67585;1281;1016459;-70
2023/06/30 14:36:43;;;;;;;;;;;;;;;32.79;32.81;98187.67;67595;1281;1015794;-70
2023/06/30 14:39:46;;;;;;;;;;;;;;;32.80;32.82;98185.89;67600;1281;1016239;-68
2023/06/30 14:42:49;;;;;;;;;;;;;;;32.69;32.18;98180.10;67640;1281;1016479;-70
2023/06/30 14:45:52;;;;;;;;;;;;;;;32.75;32.28;98180.83;67570;1281;1017754;-70
2023/06/30 14:48:55;;;;;;;;;;;;;;;32.91;32.16;98178.93;67647;1281;1016380;-70
2023/06/30 14:51:58;;;;;;;;;;;;;;;32.78;32.16;98173.63;67611;1281;1016194;-71
2023/06/30 14:55:02;;;;;;;;;;;;;;;32.79;32.49;98171.36;67637;1281;1016491;-68
2023/06/30 14:58:05;;;;;;;;;;;;;;;32.83;32.29;98171.20;67456;1281;1242470;-71
2023/06/30 15:01:08;;;;;;;;;;;;;;;33.21;32.64;98164.48;67593;1281;1016073;-67
2023/06/30 15:04:10;;;;;;;;;;;;;;;33.37;32.67;98165.67;67661;1281;1016466;-67
2023/06/30 15:07:13;;;;;;;;;;;;;;;33.69;32.67;98155.77;67664;1281;1018296;-70
2023/06/30 15:10:16;;;;;;;;;;;;;;;33.37;32.30;98159.68;67596;1281;1016303;-70
2023/06/30 15:13:19;;;;;;;;;;;;;;;32.58;33.39;98161.66;67630;1281;1016227;-70
2023/06/30 15:16:22;;;;;;;;;;;;;;;31.99;34.34;98163.79;67567;1281;1016379;-71
2023/06/30 15:19:24;;;;;;;;;;;;;;;31.44;34.51;98159.59;67622;1281;1016678;-70
2023/06/30 15:22:31;;;;;;;;;;;;;;;30.91;34.46;98155.27;67633;1281;1016473;-69
2023/06/30 15:25:33;;;;;;;;;;;;;;;30.63;35.67;98153.45;67628;1281;1015995;-70
2023/06/30 15:28:37;;;;;;;;;;;;;;;30.37;35.32;98152.20;67669;1281;1016198;-69